createdAt,value
2024-05-09T00:00:41.442Z,13.52
2024-05-09T00:03:10.404Z,13.46
2024-05-09T00:05:43.106Z,13.37
2024-05-09T00:08:11.223Z,13.26
2024-05-09T00:10:39.969Z,13.23
2024-05-09T00:13:08.568Z,13.07
2024-05-09T00:15:38.222Z,13.19
2024-05-09T00:18:07.151Z,13.25
2024-05-09T00:20:39.047Z,13.28
2024-05-09T00:23:12.988Z,13.20
2024-05-09T00:25:46.605Z,13.28
2024-05-09T00:28:13.860Z,13.21
2024-05-09T00:30:41.230Z,13.22
2024-05-09T00:33:10.259Z,13.31
2024-05-09T00:35:38.888Z,13.16
2024-05-09T00:38:06.357Z,13.10
2024-05-09T00:40:40.454Z,13.21
2024-05-09T00:43:11.211Z,13.19
2024-05-09T00:45:38.516Z,13.18
2024-05-09T00:48:07.999Z,13.16
2024-05-09T00:50:38.878Z,13.23
2024-05-09T00:53:14.373Z,13.22
2024-05-09T00:55:42.112Z,13.14
2024-05-09T00:58:12.062Z,13.01
2024-05-09T01:00:41.407Z,13.03
2024-05-09T01:03:11.706Z,13.09
2024-05-09T01:05:41.042Z,13.10
2024-05-09T01:08:09.364Z,13.02
2024-05-09T01:10:42.847Z,13.07
2024-05-09T01:13:12.111Z,13.15
2024-05-09T01:15:39.104Z,13.20
2024-05-09T01:18:12.214Z,13.12
2024-05-09T01:20:43.376Z,13.10
2024-05-09T01:23:14.504Z,13.00
2024-05-09T01:25:43.357Z,13.11
2024-05-09T01:28:10.563Z,13.02
2024-05-09T01:30:38.345Z,13.05
2024-05-09T01:33:08.287Z,13.13
2024-05-09T01:35:37.065Z,13.08
2024-05-09T01:38:04.448Z,13.04
2024-05-09T01:43:01.365Z,13.17
2024-05-09T01:45:28.312Z,13.23
2024-05-09T01:47:55.422Z,13.23
2024-05-09T01:50:33.318Z,13.13
2024-05-09T01:53:05.011Z,13.24
2024-05-09T01:55:31.947Z,13.21
2024-05-09T01:57:58.921Z,13.28
2024-05-09T02:00:36.931Z,13.10
2024-05-09T02:03:12.304Z,13.27
2024-05-09T02:05:42.842Z,13.22
2024-05-09T02:08:17.319Z,13.28
2024-05-09T02:10:45.563Z,13.25
2024-05-09T02:13:13.390Z,13.20
2024-05-09T02:15:40.349Z,13.18
2024-05-09T02:18:08.883Z,13.21
2024-05-09T02:20:39.215Z,13.19
2024-05-09T02:23:07.096Z,13.18
2024-05-09T02:25:34.934Z,13.15
2024-05-09T02:28:01.998Z,13.08
2024-05-09T02:30:38.192Z,13.07
2024-05-09T02:33:13.108Z,13.00
2024-05-09T02:35:42.759Z,12.85
2024-05-09T02:38:10.674Z,12.93
2024-05-09T02:40:39.404Z,12.93
2024-05-09T02:43:09.062Z,13.00
2024-05-09T02:45:37.318Z,13.01
2024-05-09T02:48:04.718Z,13.02
2024-05-09T02:50:37.888Z,13.06
2024-05-09T02:53:07.608Z,13.02
2024-05-09T02:55:34.956Z,13.13
2024-05-09T02:58:02.153Z,13.11
2024-05-09T03:00:37.202Z,13.17
2024-05-09T03:03:12.624Z,13.11
2024-05-09T03:05:42.122Z,13.02
2024-05-09T03:08:09.529Z,13.00
2024-05-09T03:10:38.605Z,12.99
2024-05-09T03:13:15.075Z,13.00
2024-05-09T03:15:43.715Z,12.96
2024-05-09T03:18:11.511Z,12.94
2024-05-09T03:20:39.379Z,12.95
2024-05-09T03:23:08.473Z,12.95
2024-05-09T03:25:36.323Z,12.90
2024-05-09T03:28:03.686Z,12.98
2024-05-09T03:30:39.430Z,12.94
2024-05-09T03:33:15.398Z,12.93
2024-05-09T03:35:46.524Z,12.95
2024-05-09T03:38:13.926Z,12.76
2024-05-09T03:40:51.038Z,12.88
2024-05-09T03:43:19.354Z,12.73
2024-05-09T03:45:49.491Z,12.73
2024-05-09T03:48:17.227Z,12.71
2024-05-09T03:50:44.507Z,12.69
2024-05-09T03:53:13.050Z,12.70
2024-05-09T03:55:40.301Z,12.68
2024-05-09T03:58:08.303Z,12.60
2024-05-09T04:00:38.989Z,12.66
2024-05-09T04:03:09.672Z,12.68
2024-05-09T04:05:40.900Z,12.68
2024-05-09T04:08:09.673Z,12.60
2024-05-09T04:10:36.716Z,12.63
2024-05-09T04:13:04.436Z,12.53
2024-05-09T04:15:31.995Z,12.64
2024-05-09T04:17:59.735Z,12.66
2024-05-09T04:22:56.952Z,12.64
2024-05-09T04:25:23.851Z,12.68
2024-05-09T04:27:55.751Z,12.62
2024-05-09T04:30:34.250Z,12.60
2024-05-09T04:33:06.650Z,12.62
2024-05-09T04:35:34.625Z,12.74
2024-05-09T04:38:01.684Z,12.61
2024-05-09T04:40:33.876Z,12.71
2024-05-09T04:43:04.373Z,12.76
2024-05-09T04:45:31.500Z,12.85
2024-05-09T04:47:58.924Z,12.71
2024-05-09T04:50:35.380Z,12.95
2024-05-09T04:53:06.380Z,12.91
2024-05-09T04:55:36.304Z,12.92
2024-05-09T04:58:03.380Z,12.91
2024-05-09T05:00:36.030Z,12.76
2024-05-09T05:03:13.295Z,12.76
2024-05-09T05:05:44.087Z,12.78
2024-05-09T05:08:18.192Z,12.84
2024-05-09T05:10:48.095Z,12.58
2024-05-09T05:13:17.977Z,12.80
2024-05-09T05:15:49.695Z,12.83
2024-05-09T05:18:17.052Z,12.73
2024-05-09T05:20:45.068Z,12.94
2024-05-09T05:23:13.911Z,12.92
2024-05-09T05:25:44.856Z,12.99
2024-05-09T05:28:11.872Z,12.98
2024-05-09T05:30:39.278Z,13.06
2024-05-09T05:33:07.386Z,13.06
2024-05-09T05:35:35.077Z,13.20
2024-05-09T05:38:02.898Z,13.25
2024-05-09T05:40:36.586Z,13.17
2024-05-09T05:43:06.226Z,13.25
2024-05-09T05:45:33.136Z,13.30
2024-05-09T05:48:00.518Z,13.35
2024-05-09T05:50:35.108Z,13.37
2024-05-09T05:53:06.263Z,13.31
2024-05-09T05:55:33.359Z,13.33
2024-05-09T05:58:01.634Z,13.34
2024-05-09T06:00:34.900Z,13.32
2024-05-09T06:03:06.073Z,13.43
2024-05-09T06:05:33.403Z,13.43
2024-05-09T06:08:00.936Z,13.45
2024-05-09T06:10:37.240Z,13.48
2024-05-09T06:13:07.145Z,13.58
2024-05-09T06:15:34.189Z,13.59
2024-05-09T06:18:01.831Z,13.50
2024-05-09T06:20:35.741Z,13.56
2024-05-09T06:23:06.327Z,13.51
2024-05-09T06:25:34.629Z,13.46
2024-05-09T06:28:01.962Z,13.30
2024-05-09T06:30:37.465Z,13.44
2024-05-09T06:33:10.804Z,13.61
2024-05-09T06:35:39.710Z,13.48
2024-05-09T06:38:09.385Z,13.50
2024-05-09T06:40:42.789Z,13.44
2024-05-09T06:43:16.364Z,13.47
2024-05-09T06:45:46.966Z,13.58
2024-05-09T06:48:14.452Z,13.66
2024-05-09T06:50:41.860Z,13.65
2024-05-09T06:53:09.349Z,13.55
2024-05-09T06:55:37.363Z,13.57
2024-05-09T06:58:06.700Z,13.71
2024-05-09T07:00:39.076Z,13.56
2024-05-09T07:03:15.016Z,13.67
2024-05-09T07:05:44.583Z,13.71
2024-05-09T07:08:13.426Z,13.88
2024-05-09T07:10:40.456Z,13.90
2024-05-09T07:13:15.129Z,14.18
2024-05-09T07:15:42.947Z,14.26
2024-05-09T07:18:15.666Z,14.32
2024-05-09T07:20:43.361Z,14.54
2024-05-09T07:23:11.469Z,14.52
2024-05-09T07:25:39.598Z,14.59
2024-05-09T07:28:11.192Z,14.75
2024-05-09T07:30:38.166Z,14.60
2024-05-09T07:33:05.550Z,14.83
2024-05-09T07:35:32.911Z,15.03
2024-05-09T07:38:00.360Z,15.24
2024-05-09T07:40:34.911Z,15.30
2024-05-09T07:43:04.993Z,15.38
2024-05-09T07:45:48.218Z,15.55
2024-05-09T07:52:37.613Z,15.80
2024-05-09T07:53:48.313Z,16.23
2024-05-09T07:56:19.906Z,17.81
2024-05-09T07:58:50.179Z,19.24
2024-05-09T08:01:17.254Z,19.55
2024-05-09T08:03:45.233Z,19.97
2024-05-09T08:06:12.326Z,20.03
2024-05-09T08:08:39.281Z,18.66
2024-05-09T08:11:06.783Z,18.15
2024-05-09T08:13:34.008Z,18.68
2024-05-09T08:16:01.519Z,20.36
2024-05-09T08:18:28.745Z,20.46
2024-05-09T08:20:56.139Z,20.09
2024-05-09T08:23:23.949Z,19.37
2024-05-09T08:25:53.101Z,18.65
2024-05-09T08:28:20.498Z,18.78
2024-05-09T08:30:47.933Z,18.31
2024-05-09T08:33:15.460Z,19.71
2024-05-09T08:35:42.546Z,19.75
2024-05-09T08:38:09.498Z,19.44
2024-05-09T08:40:37.931Z,18.55
2024-05-09T08:43:11.459Z,18.06
2024-05-09T08:45:43.578Z,18.44
2024-05-09T08:48:13.897Z,18.62
2024-05-09T08:50:42.118Z,19.00
2024-05-09T08:53:09.505Z,19.75
2024-05-09T08:55:40.052Z,20.82
2024-05-09T08:58:12.854Z,21.08
2024-05-09T09:00:42.357Z,21.46
2024-05-09T09:03:10.849Z,21.92
2024-05-09T09:05:40.051Z,21.71
2024-05-09T09:08:09.173Z,21.84
2024-05-09T09:10:39.744Z,22.15
2024-05-09T09:13:09.779Z,22.35
2024-05-09T09:15:50.359Z,22.73
2024-05-09T09:18:18.556Z,23.06
2024-05-09T09:20:45.993Z,22.70
2024-05-09T09:23:13.036Z,23.03
2024-05-09T09:25:40.809Z,23.46
2024-05-09T09:28:08.946Z,22.82
2024-05-09T09:30:40.479Z,23.05
2024-05-09T09:33:09.244Z,23.18
2024-05-09T09:35:36.336Z,24.04
2024-05-09T09:38:04.648Z,23.35
2024-05-09T09:40:40.856Z,21.93
2024-05-09T09:43:21.666Z,24.04
2024-05-09T09:45:52.183Z,23.93
2024-05-09T09:48:23.598Z,23.89
2024-05-09T09:50:55.525Z,23.67
2024-05-09T09:53:23.528Z,23.59
2024-05-09T09:55:52.179Z,23.77
2024-05-09T09:58:19.653Z,24.19
2024-05-09T10:00:47.044Z,24.30
2024-05-09T10:03:14.210Z,23.93
2024-05-09T10:05:45.041Z,24.61
2024-05-09T10:08:16.015Z,24.72
2024-05-09T10:10:47.717Z,24.31
2024-05-09T10:13:15.715Z,24.52
2024-05-09T10:15:48.366Z,24.38
2024-05-09T10:18:15.908Z,24.78
2024-05-09T10:20:46.835Z,24.73
2024-05-09T10:23:29.712Z,24.68
2024-05-09T10:25:56.592Z,24.34
2024-05-09T10:28:27.935Z,23.71
2024-05-09T10:31:11.611Z,23.16
2024-05-09T10:33:51.010Z,23.21
2024-05-09T10:36:23.402Z,23.36
2024-05-09T10:38:51.606Z,23.18
2024-05-09T10:41:19.653Z,22.88
2024-05-09T10:43:47.633Z,23.71
2024-05-09T10:46:15.268Z,24.02
2024-05-09T10:48:44.070Z,23.27
2024-05-09T10:51:11.503Z,24.07
2024-05-09T10:53:42.051Z,23.32
2024-05-09T10:56:09.330Z,22.82
2024-05-09T10:58:36.346Z,21.97
2024-05-09T11:01:06.642Z,22.33
2024-05-09T11:03:35.483Z,23.24
2024-05-09T11:06:03.056Z,24.02
2024-05-09T11:08:32.190Z,23.86
2024-05-09T11:10:59.978Z,23.43
2024-05-09T11:13:28.481Z,23.43
2024-05-09T11:15:55.560Z,23.11
2024-05-09T11:18:25.612Z,23.81
2024-05-09T11:20:54.933Z,23.63
2024-05-09T11:23:23.032Z,23.59
2024-05-09T11:25:55.024Z,24.02
2024-05-09T11:28:23.336Z,24.19
2024-05-09T11:30:50.950Z,23.83
2024-05-09T11:33:19.835Z,23.38
2024-05-09T11:35:47.324Z,23.23
2024-05-09T11:38:14.366Z,22.87
2024-05-09T11:40:41.817Z,22.14
2024-05-09T11:43:08.894Z,21.82
2024-05-09T11:45:36.026Z,21.65
2024-05-09T11:48:04.045Z,21.14
2024-05-09T11:50:35.331Z,21.14
2024-05-09T11:53:03.248Z,20.95
2024-05-09T11:55:30.882Z,20.70
2024-05-09T11:57:57.991Z,20.94
2024-05-09T12:00:33.211Z,20.79
2024-05-09T12:03:05.477Z,20.43
2024-05-09T12:05:33.778Z,20.33
2024-05-09T12:08:01.840Z,20.38
2024-05-09T12:10:33.612Z,20.76
2024-05-09T12:13:04.916Z,20.79
2024-05-09T12:15:34.055Z,20.41
2024-05-09T12:18:03.638Z,20.78
2024-05-09T12:20:36.363Z,20.73
2024-05-09T12:23:06.057Z,20.78
2024-05-09T12:25:33.150Z,21.33
2024-05-09T12:28:00.644Z,21.36
2024-05-09T12:30:36.103Z,21.50
2024-05-09T12:33:08.307Z,21.67
2024-05-09T12:35:35.873Z,21.49
2024-05-09T12:38:03.027Z,21.36
2024-05-09T12:40:36.018Z,21.50
2024-05-09T12:43:07.248Z,21.36
2024-05-09T12:45:34.785Z,21.39
2024-05-09T12:48:01.888Z,21.49
2024-05-09T12:50:33.196Z,21.54
2024-05-09T12:53:02.971Z,21.44
2024-05-09T12:55:37.267Z,21.94
2024-05-09T12:58:11.794Z,21.92
2024-05-09T13:00:39.279Z,21.79
2024-05-09T13:03:06.693Z,21.28
2024-05-09T13:05:33.942Z,21.14
2024-05-09T13:08:01.311Z,21.09
2024-05-09T13:10:32.209Z,21.24
2024-05-09T13:13:01.961Z,20.84
2024-05-09T13:15:34.771Z,20.62
2024-05-09T13:18:03.517Z,20.40
2024-05-09T13:20:34.173Z,20.49
2024-05-09T13:23:04.263Z,20.62
2024-05-09T13:25:31.673Z,20.72
2024-05-09T13:27:58.790Z,20.92
2024-05-09T13:30:33.683Z,20.97
2024-05-09T13:33:06.625Z,21.23
2024-05-09T13:35:35.304Z,21.10
2024-05-09T13:38:03.974Z,21.30
2024-05-09T13:40:34.635Z,21.05
2024-05-09T13:43:05.599Z,21.08
2024-05-09T13:45:33.369Z,21.02
2024-05-09T13:48:02.099Z,20.88
2024-05-09T13:50:34.580Z,20.30
2024-05-09T13:53:06.194Z,19.68
2024-05-09T13:55:38.267Z,19.84
2024-05-09T13:58:06.420Z,20.01
2024-05-09T14:00:44.004Z,20.15
2024-05-09T14:03:16.498Z,19.73
2024-05-09T14:05:45.302Z,20.00
2024-05-09T14:08:13.729Z,20.23
2024-05-09T14:10:44.530Z,20.44
2024-05-09T14:13:12.005Z,20.22
2024-05-09T14:15:39.115Z,20.12
2024-05-09T14:18:10.370Z,19.86
2024-05-09T14:20:39.654Z,19.37
2024-05-09T14:23:06.528Z,19.60
2024-05-09T14:25:37.943Z,19.79
2024-05-09T14:28:08.091Z,20.27
2024-05-09T14:30:37.809Z,20.46
2024-05-09T14:33:07.261Z,20.48
2024-05-09T14:35:35.397Z,20.36
2024-05-09T14:38:02.958Z,20.35
2024-05-09T14:40:40.236Z,20.38
2024-05-09T14:43:15.438Z,20.38
2024-05-09T14:45:43.904Z,20.19
2024-05-09T14:48:17.666Z,20.06
2024-05-09T14:50:44.744Z,20.37
2024-05-09T14:53:13.548Z,20.42
2024-05-09T14:55:42.767Z,20.52
2024-05-09T14:58:11.760Z,20.42
2024-05-09T15:00:46.458Z,20.69
2024-05-09T15:03:21.329Z,20.54
2024-05-09T15:05:49.558Z,20.48
2024-05-09T15:08:17.845Z,20.55
2024-05-09T15:10:45.296Z,20.27
2024-05-09T15:13:14.412Z,20.12
2024-05-09T15:15:43.514Z,19.86
2024-05-09T15:18:10.553Z,20.26
2024-05-09T15:20:38.035Z,20.26
2024-05-09T15:23:06.826Z,19.95
2024-05-09T15:25:35.953Z,20.03
2024-05-09T15:28:04.666Z,19.94
2024-05-09T15:30:33.648Z,20.04
2024-05-09T15:33:05.568Z,19.88
2024-05-09T15:35:33.604Z,19.38
2024-05-09T15:38:03.010Z,19.08
2024-05-09T15:40:37.644Z,18.54
2024-05-09T15:43:09.303Z,18.05
2024-05-09T15:45:37.714Z,18.29
2024-05-09T15:48:05.768Z,18.29
2024-05-09T15:50:38.682Z,17.94
2024-05-09T15:53:09.872Z,17.97
2024-05-09T15:55:37.854Z,18.02
2024-05-09T15:58:06.190Z,17.96
2024-05-09T16:00:38.794Z,18.03
2024-05-09T16:03:10.004Z,18.08
2024-05-09T16:05:38.064Z,17.66
2024-05-09T16:08:06.212Z,17.47
2024-05-09T16:10:34.770Z,17.20
2024-05-09T16:13:03.440Z,17.43
2024-05-09T16:15:31.271Z,17.34
2024-05-09T16:17:58.470Z,17.23
2024-05-09T16:20:34.936Z,16.99
2024-05-09T16:23:08.055Z,16.99
2024-05-09T16:25:35.396Z,17.03
2024-05-09T16:28:05.915Z,16.93
2024-05-09T16:30:36.295Z,16.73
2024-05-09T16:33:05.101Z,16.80
2024-05-09T16:35:33.083Z,16.99
2024-05-09T16:38:02.408Z,17.33
2024-05-09T16:40:36.652Z,17.35
2024-05-09T16:43:07.537Z,16.93
2024-05-09T16:45:35.311Z,16.93
2024-05-09T16:48:02.515Z,16.99
2024-05-09T16:50:33.902Z,17.10
2024-05-09T16:53:03.242Z,17.22
2024-05-09T16:55:30.448Z,16.87
2024-05-09T16:57:58.134Z,16.67
2024-05-09T17:00:35.815Z,16.76
2024-05-09T17:03:09.915Z,16.86
2024-05-09T17:05:37.800Z,16.94
2024-05-09T17:08:05.588Z,16.82
2024-05-09T17:10:34.773Z,16.44
2024-05-09T17:13:04.683Z,16.38
2024-05-09T17:15:33.418Z,16.50
2024-05-09T17:18:01.732Z,16.24
2024-05-09T17:20:33.577Z,16.32
2024-05-09T17:23:05.827Z,16.31
2024-05-09T17:25:33.771Z,16.29
2024-05-09T17:28:08.247Z,16.11
2024-05-09T17:30:38.378Z,16.29
2024-05-09T17:33:08.785Z,16.17
2024-05-09T17:35:36.848Z,16.18
2024-05-09T17:38:05.241Z,16.02
2024-05-09T17:40:35.805Z,16.24
2024-05-09T17:43:05.555Z,15.95
2024-05-09T17:45:33.316Z,16.19
2024-05-09T17:48:01.660Z,16.11
2024-05-09T17:50:34.835Z,15.99
2024-05-09T17:53:04.500Z,15.68
2024-05-09T17:55:31.619Z,15.50
2024-05-09T17:57:58.666Z,15.42
2024-05-09T18:00:36.436Z,15.44
2024-05-09T18:03:07.278Z,15.10
2024-05-09T18:05:36.718Z,15.02
2024-05-09T18:08:04.759Z,15.07
2024-05-09T18:10:36.814Z,15.09
2024-05-09T18:13:09.713Z,14.93
2024-05-09T18:15:37.396Z,14.94
2024-05-09T18:18:05.773Z,15.03
2024-05-09T18:20:41.690Z,14.78
2024-05-09T18:23:14.085Z,14.65
2024-05-09T18:25:41.945Z,14.63
2024-05-09T18:28:09.578Z,14.69
2024-05-09T18:30:37.518Z,14.81
2024-05-09T18:33:07.727Z,14.90
2024-05-09T18:35:36.230Z,14.89
2024-05-09T18:38:03.840Z,14.82
2024-05-09T18:40:34.821Z,14.77
2024-05-09T18:43:07.012Z,14.72
2024-05-09T18:45:36.102Z,14.78
2024-05-09T18:48:05.358Z,14.63
2024-05-09T18:50:37.297Z,14.70
2024-05-09T18:53:06.804Z,14.72
2024-05-09T18:55:33.979Z,14.65
2024-05-09T18:58:01.283Z,14.86
2024-05-09T19:00:34.675Z,14.77
2024-05-09T19:03:08.947Z,14.74
2024-05-09T19:05:38.227Z,14.75
2024-05-09T19:08:05.880Z,14.59
2024-05-09T19:10:34.974Z,14.62
2024-05-09T19:13:08.183Z,14.57
2024-05-09T19:15:39.383Z,14.36
2024-05-09T19:18:07.270Z,14.27
2024-05-09T19:20:36.158Z,14.44
2024-05-09T19:23:04.984Z,14.30
2024-05-09T19:25:33.147Z,14.33
2024-05-09T19:28:00.998Z,14.26
2024-05-09T19:30:36.880Z,14.20
2024-05-09T19:33:08.424Z,14.19
2024-05-09T19:35:38.559Z,14.11
2024-05-09T19:38:05.868Z,14.07
2024-05-09T19:40:34.340Z,14.00
2024-05-09T19:43:03.604Z,14.07
2024-05-09T19:45:33.165Z,14.05
2024-05-09T19:48:04.845Z,13.92
2024-05-09T19:50:40.452Z,13.95
2024-05-09T19:53:11.490Z,13.96
2024-05-09T19:55:39.059Z,13.88
2024-05-09T19:58:07.748Z,13.90
2024-05-09T20:00:41.053Z,13.94
2024-05-09T20:03:11.640Z,13.90
2024-05-09T20:05:42.494Z,14.00
2024-05-09T20:08:09.510Z,14.05
2024-05-09T20:10:37.077Z,14.01
2024-05-09T20:13:06.653Z,14.07
2024-05-09T20:15:36.746Z,13.99
2024-05-09T20:18:04.794Z,13.84
2024-05-09T20:20:37.790Z,13.89
2024-05-09T20:23:09.056Z,14.02
2024-05-09T20:25:36.163Z,13.89
2024-05-09T20:28:03.249Z,13.85
2024-05-09T20:30:32.976Z,14.02
2024-05-09T20:33:07.298Z,13.78
2024-05-09T20:35:35.697Z,13.76
2024-05-09T20:38:03.507Z,13.96
2024-05-09T20:40:35.419Z,13.89
2024-05-09T20:43:06.142Z,13.77
2024-05-09T20:45:34.053Z,13.71
2024-05-09T20:48:01.713Z,13.74
2024-05-09T20:50:36.871Z,13.97
2024-05-09T20:53:09.864Z,13.74
2024-05-09T20:55:37.137Z,13.75
2024-05-09T20:58:04.412Z,13.85
2024-05-09T21:00:39.757Z,13.84
2024-05-09T21:03:10.367Z,13.74
2024-05-09T21:05:37.906Z,13.61
2024-05-09T21:08:05.278Z,13.78
2024-05-09T21:10:33.958Z,13.65
2024-05-09T21:13:02.773Z,13.72
2024-05-09T21:15:30.478Z,13.63
2024-05-09T21:17:57.659Z,13.65
2024-05-09T21:20:30.998Z,13.67
2024-05-09T21:22:59.873Z,13.91
2024-05-09T21:25:27.036Z,13.68
2024-05-09T21:27:54.246Z,13.80
2024-05-09T21:30:32.088Z,13.87
2024-05-09T21:33:09.289Z,13.57
2024-05-09T21:35:37.447Z,13.70
2024-05-09T21:38:04.871Z,13.73
2024-05-09T21:40:35.151Z,13.69
2024-05-09T21:43:04.486Z,13.80
2024-05-09T21:45:31.811Z,13.73
2024-05-09T21:47:58.989Z,13.56
2024-05-09T21:50:32.546Z,13.65
2024-05-09T21:53:06.682Z,13.49
2024-05-09T21:55:34.021Z,13.64
2024-05-09T21:58:01.143Z,13.74
2024-05-09T22:00:35.532Z,13.79
2024-05-09T22:03:05.947Z,13.67
2024-05-09T22:05:33.263Z,13.75
2024-05-09T22:08:00.835Z,13.75
2024-05-09T22:10:33.750Z,13.79
2024-05-09T22:13:04.028Z,13.74
2024-05-09T22:15:35.678Z,13.71
2024-05-09T22:18:03.793Z,13.68
2024-05-09T22:20:36.850Z,13.64
2024-05-09T22:23:06.504Z,13.58
2024-05-09T22:25:33.788Z,13.66
2024-05-09T22:28:02.008Z,13.56
2024-05-09T22:32:59.062Z,13.46
2024-05-09T22:35:25.974Z,13.47
2024-05-09T22:37:52.915Z,13.56
2024-05-09T22:40:28.960Z,13.61
2024-05-09T22:43:05.735Z,13.41
2024-05-09T22:45:32.868Z,13.51
2024-05-09T22:48:00.226Z,13.60
2024-05-09T22:50:32.717Z,13.61
2024-05-09T22:53:00.548Z,13.74
2024-05-09T22:55:27.516Z,13.76
2024-05-09T22:57:54.628Z,13.67
2024-05-09T23:00:29.409Z,13.61
2024-05-09T23:03:02.278Z,13.57
2024-05-09T23:05:30.829Z,13.68
2024-05-09T23:07:57.896Z,13.48
2024-05-09T23:10:31.740Z,13.63
2024-05-09T23:13:03.259Z,13.67
2024-05-09T23:15:30.470Z,13.65
2024-05-09T23:17:58.384Z,13.58
2024-05-09T23:20:35.863Z,13.67
2024-05-09T23:23:10.446Z,13.48
2024-05-09T23:25:38.681Z,13.50
2024-05-09T23:28:06.310Z,13.50
2024-05-09T23:30:38.213Z,13.59
2024-05-09T23:33:11.310Z,13.52
2024-05-09T23:35:39.281Z,13.42
2024-05-09T23:38:06.160Z,13.39
2024-05-09T23:40:39.338Z,13.39
2024-05-09T23:43:09.887Z,13.40
2024-05-09T23:45:37.421Z,13.46
2024-05-09T23:48:05.294Z,13.50
2024-05-09T23:50:38.158Z,13.52
2024-05-09T23:53:10.664Z,13.22
2024-05-09T23:55:38.086Z,13.48
2024-05-09T23:58:05.795Z,13.03
